Aviation Digital Data Service (ADDS)

Output produced by METARs form (0546 UTC 16 February 2019)
found at http://www.aviationweather.gov/metar/data/
 
Forecast for: VLLB (LUANG-PRABANG , LA)
Text: TAF VLLB 160500Z 1606/1706 06004KT 9999 SCT017 SCT060
Forecast period: 0600 UTC 16 February 2019 to 0600 UTC 17 February 2019
Forecast type: FROM: standard forecast or significant change
Winds: from the ENE (60 degrees) at 5 MPH (4 knots; 2.1 m/s)
Visibility: 6 or more miles 10+ km)
Ceiling: at least 12,000 feet AGL
Clouds: scattered clouds at 1700 feet AGL
scattered clouds at 6000 feet AGL
Weather: no significant weather forecast for this period
Text: TEMPO 1612/1617 5000 BR SCT020
Forecast period: 1200 to 1700 UTC 16 February 2019
Forecast type: TEMPORARY: The following changes expected for less than half the time period
Visibility: 3 miles (5 km)
Ceiling: at least 12,000 feet AGL
Clouds: scattered clouds at 2000 feet AGL
Weather: BR  (mist)